4 de julio de 2022

Hora Código Tiempo Temp. Visibilidad Cielo nuboso Viento METAR/SPECI
7:00 p. m.
V
77 °F 9 mi - 250° 250° 12 kt METAR CYHU 042300Z AUTO 25012KT 9SM FEW081 25/10 A3002 RMK SLP169 DENSITY ALT 1200FT
6:00 p. m.
V
77 °F 9 mi - 290° 290° 10 - 15 kt METAR CYHU 042200Z AUTO 29010G15KT 9SM FEW076 25/09 A3003 RMK SLP170 DENSITY ALT 1200FT
5:00 p. m.
V
77 °F 9 mi 9.200 ft 220° 220° 12 kt METAR CYHU 042100Z AUTO 22012KT 200V270 9SM SCT071 BKN092 25/10 A3003 RMK SLP172 DENSITY ALT 1200FT
4:00 p. m.
V
73 °F 9 mi - 250° 250° 9 - 16 kt METAR CYHU 042000Z AUTO 25009G16KT 9SM SCT066 SCT081 23/10 A3005 RMK SLP177 DENSITY ALT 1000FT
3:00 p. m.
V
75 °F 9 mi 10.000 ft 250° 250° 13 kt METAR CYHU 041900Z AUTO 25013KT 9SM SCT071 BKN100 24/10 A3007 RMK SLP183 DENSITY ALT 1000FT
2:00 p. m.
V
73 °F 9 mi 8.800 ft 210° 210° 9 kt METAR CYHU 041800Z AUTO 21009KT 9SM FEW066 BKN088 23/10 A3007 RMK SLP185 DENSITY ALT 1000FT
1:00 p. m.
V
73 °F 9 mi 7.600 ft 230° 230° 8 kt METAR CYHU 041700Z AUTO 23008KT 9SM BKN076 23/08 A3008 RMK SLP189 DENSITY ALT 900FT
12:00 p. m.
V
75 °F 9 mi - Var Var 2 kt METAR CYHU 041600Z AUTO VRB02KT 9SM CLR 24/09 A3010 RMK SLP194 DENSITY ALT 900FT
11:00 a. m.
V
72 °F 9 mi - Var Var 4 kt METAR CYHU 041500Z AUTO VRB04KT 9SM CLR 22/07 A3011 RMK SLP199 DENSITY ALT 800FT
10:00 a. m.
V
70 °F 9 mi - 050° 050° 6 kt METAR CYHU 041400Z AUTO 05006KT 330V070 9SM CLR 21/09 A3011 RMK SLP198 DENSITY ALT 700FT
9:00 a. m.
V
68 °F 9 mi - 340° 340° 7 kt METAR CYHU 041300Z AUTO 34007KT 310V070 9SM CLR 20/09 A3012 RMK SLP201 DENSITY ALT 500FT
8:00 a. m.
V
66 °F 9 mi - 010° 010° 4 kt METAR CYHU 041200Z AUTO 01004KT 350V070 9SM CLR 19/11 A3011 RMK SLP199 DENSITY ALT 300FT
7:00 a. m.
V
63 °F 9 mi - Var Var 2 kt METAR CYHU 041100Z AUTO VRB02KT 9SM CLR 17/11 A3011 RMK SLP198 DENSITY ALT 200FT
6:00 a. m.
V
57 °F 9 mi - Var 000° 0 kt METAR CYHU 041000Z AUTO 00000KT 9SM CLR 14/10 A3010 RMK SLP194
5:00 a. m.
V
57 °F 9 mi - Var 000° 0 kt METAR CYHU 040900Z AUTO 00000KT 9SM CLR 14/10 A3008 RMK SLP188
4:59 a. m.
V
57 °F 9 mi - Var 000° 0 kt METAR CYHU 040859Z AUTO 00000KT 9SM CLR 14/10 A3008 RMK SLP189
4:00 a. m.
V
59 °F 9 mi - 250° 250° 4 kt METAR CYHU 040800Z AUTO 25004KT 9SM CLR 15/10 A3007 RMK SLP183
3:00 a. m.
V
59 °F 9 mi - 230° 230° 5 kt METAR CYHU 040700Z AUTO 23005KT 9SM CLR 15/10 A3006 RMK SLP181
2:00 a. m.
V
63 °F 9 mi - 310° 310° 5 kt METAR CYHU 040600Z AUTO 31005KT 9SM CLR 17/10 A3005 RMK SLP178 DENSITY ALT 200FT
1:00 a. m.
V
64 °F 9 mi - 300° 300° 6 kt METAR CYHU 040500Z AUTO 30006KT 9SM CLR 18/10 A3004 RMK SLP174 DENSITY ALT 400FT
12:00 a. m.
V
66 °F 9 mi - 300° 300° 7 kt METAR CYHU 040400Z AUTO 30007KT 9SM CLR 19/10 A3003 RMK SLP171 DENSITY ALT 500FT

3 de julio de 2022

Hora Código Tiempo Temp. Visibilidad Cielo nuboso Viento METAR/SPECI
11:00 p. m.
V
68 °F 9 mi - 290° 290° 9 kt METAR CYHU 040300Z AUTO 29009KT 9SM SCT110 20/10 A3002 RMK SLP167 DENSITY ALT 600FT
10:00 p. m.
V
70 °F 9 mi - 280° 280° 10 - 16 kt METAR CYHU 040200Z AUTO 28010G16KT 9SM CLR 21/09 A3002 RMK SLP168 DENSITY ALT 700FT
9:00 p. m.
V
70 °F 9 mi - 270° 270° 9 kt METAR CYHU 040100Z AUTO 27009KT 9SM FEW096 21/09 A3001 RMK SLP163 DENSITY ALT 800FT
8:00 p. m.
V
72 °F 9 mi 9.100 ft 280° 280° 16 kt METAR CYHU 040000Z AUTO 28016KT 9SM BKN091 BKN110 22/09 A3000 RMK SLP161 DENSITY ALT 900FT
7:00 p. m.
V
75 °F 9 mi - 260° 260° 15 - 20 kt METAR CYHU 032300Z AUTO 26015G20KT 9SM SCT071 SCT089 24/08 A2998 RMK SLP155 DENSITY ALT 1100FT
6:00 p. m.
V
75 °F 9 mi - 290° 290° 13 - 21 kt METAR CYHU 032200Z AUTO 29013G21KT 9SM FEW071 24/08 A2997 RMK SLP151 DENSITY ALT 1200FT
5:00 p. m.
V
77 °F 9 mi - 260° 260° 16 kt METAR CYHU 032100Z AUTO 26016KT 9SM FEW091 25/09 A2996 RMK SLP148 DENSITY ALT 1300FT
4:00 p. m.
V
75 °F 9 mi - 250° 250° 15 - 22 kt METAR CYHU 032000Z AUTO 25015G22KT 240V310 9SM FEW071 24/10 A2996 RMK SLP146 DENSITY ALT 1200FT
3:00 p. m.
V
77 °F 9 mi - 280° 280° 14 - 24 kt METAR CYHU 031900Z AUTO 28014G24KT 250V310 9SM FEW066 SCT085 25/10 A2997 RMK SLP150 DENSITY ALT 1200FT
2:00 p. m.
V
77 °F 9 mi - 270° 270° 14 - 19 kt METAR CYHU 031800Z AUTO 27014G19KT 240V320 9SM FEW066 25/09 A2996 RMK SLP148 DENSITY ALT 1200FT
1:00 p. m.
V
75 °F 9 mi - 280° 280° 16 - 21 kt METAR CYHU 031700Z AUTO 28016G21KT 230V300 9SM CLR 24/09 A2997 RMK SLP151 DENSITY ALT 1200FT
12:00 p. m.
V
75 °F 9 mi - 240° 240° 17 kt METAR CYHU 031600Z AUTO 24017KT 9SM SCT060 24/11 A2996 RMK SLP149 DENSITY ALT 1100FT
11:45 a. m.
V
73 °F 9 mi - 300° 300° 11 - 16 kt METAR CYHU 031545Z AUTO 30011G16KT 9SM SCT055 23/10 A2997 RMK WSHFT AT 1530Z SLP150 DENSITY ALT 1000FT
11:00 a. m.
V
73 °F 9 mi - 240° 240° 12 - 19 kt METAR CYHU 031500Z AUTO 24012G19KT 220V290 9SM CLR 23/11 A2997 RMK SLP152 DENSITY ALT 1000FT
10:59 a. m.
V
73 °F 9 mi - 240° 240° 14 - 19 kt METAR CYHU 031459Z AUTO 24014G19KT 220V290 9SM CLR 23/13 A2997 RMK SLP151 DENSITY ALT 1000FT
10:00 a. m.
V
70 °F 9 mi - 260° 260° 4 kt METAR CYHU 031400Z AUTO 26004KT 220V320 9SM SCT071 21/10 A2997 RMK SLP151 DENSITY ALT 800FT
9:00 a. m.
V
68 °F 9 mi 7.600 ft 290° 290° 6 kt METAR CYHU 031300Z AUTO 29006KT 9SM BKN076 OVC093 20/10 A2997 RMK SLP151 DENSITY ALT 700FT
8:00 a. m.
V
68 °F 9 mi - 300° 300° 6 kt METAR CYHU 031200Z AUTO 30006KT 240V310 9SM SCT081 SCT094 20/11 A2996 RMK SLP147 DENSITY ALT 700FT
7:00 a. m.
V
63 °F 9 mi - 240° 240° 6 kt METAR CYHU 031100Z AUTO 24006KT 9SM SCT081 SCT100 17/13 A2994 RMK SLP140 DENSITY ALT 400FT
6:00 a. m.
V
61 °F 9 mi - 260° 260° 5 kt METAR CYHU 031000Z AUTO 26005KT 9SM SCT091 SCT190 16/12 A2992 RMK SLP134 DENSITY ALT 300FT
5:00 a. m.
V
61 °F 9 mi 8.600 ft 260° 260° 6 kt METAR CYHU 030900Z AUTO 26006KT 9SM BKN086 16/12 A2990 RMK SLP127 DENSITY ALT 300FT
4:00 a. m.
V
61 °F 9 mi - 220° 220° 5 kt METAR CYHU 030800Z AUTO 22005KT 9SM FEW086 16/12 A2989 RMK SLP122 DENSITY ALT 300FT
3:00 a. m.
V
63 °F 9 mi - 220° 220° 4 kt METAR CYHU 030700Z AUTO 22004KT 9SM CLR 17/12 A2987 RMK SLP118 DENSITY ALT 400FT
2:00 a. m.
V
64 °F 9 mi - 260° 260° 5 kt METAR CYHU 030600Z AUTO 26005KT 9SM CLR 18/12 A2986 RMK SLP113 DENSITY ALT 600FT
1:00 a. m.
V
64 °F 9 mi - 230° 230° 7 kt METAR CYHU 030500Z AUTO 23007KT 9SM CLR 18/12 A2986 RMK SLP113 DENSITY ALT 600FT
12:00 a. m.
V
68 °F 9 mi - 220° 220° 8 kt METAR CYHU 030400Z AUTO 22008KT 9SM SCT091 20/12 A2985 RMK SLP109 DENSITY ALT 800FT

2 de julio de 2022

Hora Código Tiempo Temp. Visibilidad Cielo nuboso Viento METAR/SPECI
11:00 p. m.
V
70 °F 9 mi - 230° 230° 7 kt METAR CYHU 030300Z AUTO 23007KT 9SM CLR 21/12 A2984 RMK SLP107 DENSITY ALT 900FT
10:00 p. m.
V
72 °F 9 mi - 230° 230° 11 - 16 kt METAR CYHU 030200Z AUTO 23011G16KT 9SM CLR 22/11 A2983 RMK SLP103 DENSITY ALT 1100FT
9:00 p. m.
V
75 °F 9 mi - 240° 240° 14 - 24 kt METAR CYHU 030100Z AUTO 24014G24KT 9SM CLR 24/12 A2981 RMK SLP096 DENSITY ALT 1300FT
8:00 p. m.
V
77 °F 9 mi - 250° 250° 16 - 26 kt METAR CYHU 030000Z AUTO 25016G26KT 9SM SCT076 SCT089 SCT110 25/12 A2979 RMK SLP091 DENSITY ALT 1400FT
7:00 p. m.
V
79 °F 9 mi 7.100 ft 240° 240° 17 - 23 kt METAR CYHU 022300Z AUTO 24017G23KT 9SM BKN071 BKN098 26/12 A2978 RMK SLP088 DENSITY ALT 1500FT
6:00 p. m.
V
79 °F 9 mi 9.200 ft 240° 240° 16 - 22 kt METAR CYHU 022200Z AUTO 24016G22KT 9SM FEW071 BKN092 BKN110 26/12 A2979 RMK SLP090 DENSITY ALT 1500FT
5:00 p. m.
V
79 °F 9 mi - 230° 230° 16 - 24 kt METAR CYHU 022100Z AUTO 23016G24KT 9SM FEW096 26/12 A2980 RMK SLP092 DENSITY ALT 1600FT
4:00 p. m.
V
79 °F 9 mi 7.600 ft 230° 230° 15 - 21 kt METAR CYHU 022000Z AUTO 23015G21KT 9SM BKN076 26/12 A2980 RMK SLP094 DENSITY ALT 1500FT
3:00 p. m.
V
79 °F 9 mi - 230° 230° 15 - 23 kt METAR CYHU 021900Z AUTO 23015G23KT 9SM SCT071 26/11 A2980 RMK SLP093 DENSITY ALT 1600FT
2:00 p. m.
V
79 °F 9 mi - 240° 240° 13 - 19 kt METAR CYHU 021800Z AUTO 24013G19KT 220V280 9SM FEW071 26/11 A2981 RMK SLP095 DENSITY ALT 1500FT
1:00 p. m.
V
77 °F 9 mi - 250° 250° 16 - 24 kt METAR CYHU 021700Z AUTO 25016G24KT 9SM FEW071 25/11 A2981 RMK SLP097 DENSITY ALT 1500FT
12:00 p. m.
V
77 °F 9 mi - 280° 280° 11 - 22 kt METAR CYHU 021600Z AUTO 28011G22KT 260V320 9SM CLR 25/10 A2982 RMK SLP099 DENSITY ALT 1400FT
11:00 a. m.
V
75 °F 9 mi - 280° 280° 13 - 20 kt METAR CYHU 021500Z AUTO 28013G20KT 9SM CLR 24/12 A2981 RMK SLP097 DENSITY ALT 1300FT
Datos más antiguos

Descarga nuestra aplicación

Acceso fácil a todo el tiempo de la aviación en tu teléfono móvil y tableta.
Con muchas funciones no disponibles en el sitio web, como la compatibilidad sin conexión y una lista personal de aeropuertos.

Nosotros y terceros seguimos tu comportamiento en Internet en nuestro sitio web con cookies. Si continúas, asumimos que estás de acuerdo con nuestra política de cookies. Más información